createdAt,value
2017-11-19T00:00:55.138Z,2.40
2017-11-19T00:03:23.738Z,2.30
2017-11-19T00:05:54.993Z,2.40
2017-11-19T00:08:23.546Z,2.40
2017-11-19T00:10:51.960Z,2.40
2017-11-19T00:13:20.359Z,2.40
2017-11-19T00:15:48.782Z,2.40
2017-11-19T00:18:17.654Z,2.30
2017-11-19T00:20:46.447Z,2.30
2017-11-19T00:23:15.045Z,2.30
2017-11-19T00:25:43.525Z,2.30
2017-11-19T00:28:11.852Z,2.30
2017-11-19T00:30:43.449Z,2.30
2017-11-19T00:33:12.409Z,2.30
2017-11-19T00:35:42.693Z,2.30
2017-11-19T00:38:11.142Z,2.30
2017-11-19T00:40:39.605Z,2.20
2017-11-19T00:43:08.107Z,2.30
2017-11-19T00:45:36.554Z,2.30
2017-11-19T00:48:04.994Z,2.30
2017-11-19T00:50:35.764Z,2.30
2017-11-19T00:53:08.395Z,2.20
2017-11-19T00:55:37.467Z,2.20
2017-11-19T00:58:07.252Z,2.30
2017-11-19T01:00:35.724Z,2.30
2017-11-19T01:03:04.617Z,2.20
2017-11-19T01:05:33.083Z,2.20
2017-11-19T01:08:02.975Z,2.30
2017-11-19T01:10:32.457Z,2.30
2017-11-19T01:13:06.857Z,2.30
2017-11-19T01:15:36.689Z,2.30
2017-11-19T01:18:05.243Z,2.20
2017-11-19T01:20:35.677Z,2.30
2017-11-19T01:23:04.693Z,2.20
2017-11-19T01:25:33.136Z,2.20
2017-11-19T01:28:01.555Z,2.20
2017-11-19T01:33:10.432Z,2.10
2017-11-19T01:35:38.935Z,2.10
2017-11-19T01:38:08.946Z,2.10
2017-11-19T01:40:40.382Z,2.10
2017-11-19T01:43:08.879Z,2.10
2017-11-19T01:45:37.347Z,2.10
2017-11-19T01:48:06.624Z,2.10
2017-11-19T01:50:37.119Z,2.10
2017-11-19T01:53:17.079Z,2.10
2017-11-19T01:55:45.701Z,0.60
2017-11-19T01:58:16.029Z,2.00
2017-11-19T02:00:48.370Z,2.00
2017-11-19T02:03:21.088Z,2.00
2017-11-19T02:05:51.880Z,2.10
2017-11-19T02:08:20.339Z,2.10
2017-11-19T02:10:50.414Z,2.10
2017-11-19T02:13:20.121Z,2.10
2017-11-19T02:15:54.988Z,2.10
2017-11-19T02:18:24.750Z,2.10
2017-11-19T02:20:53.749Z,2.20
2017-11-19T02:23:23.832Z,2.10
2017-11-19T02:25:52.329Z,2.10
2017-11-19T02:28:20.752Z,2.10
2017-11-19T02:33:23.457Z,2.10
2017-11-19T02:35:53.891Z,2.10
2017-11-19T02:38:26.008Z,2.10
2017-11-19T02:43:30.525Z,2.10
2017-11-19T02:48:52.159Z,2.10
2017-11-19T02:51:22.960Z,2.00
2017-11-19T02:54:19.851Z,2.00
2017-11-19T04:04:10.309Z,1.80
2017-11-19T04:06:38.647Z,1.80
2017-11-19T04:09:06.966Z,1.80
2017-11-19T04:11:35.312Z,1.80
2017-11-19T04:14:03.663Z,1.90
2017-11-19T04:16:32.775Z,1.90
2017-11-19T04:19:01.095Z,1.90
2017-11-19T04:21:29.482Z,1.90
2017-11-19T04:23:57.986Z,1.90
2017-11-19T04:26:26.734Z,1.90
2017-11-19T04:28:55.110Z,1.90
2017-11-19T04:31:22.968Z,1.90
2017-11-19T04:33:50.632Z,1.90
2017-11-19T04:36:19.804Z,1.90
2017-11-19T04:38:48.489Z,1.90
2017-11-19T04:41:16.475Z,1.90
2017-11-19T04:43:44.828Z,2.00
2017-11-19T04:46:13.348Z,1.90
2017-11-19T04:48:41.667Z,1.90
2017-11-19T04:51:10.007Z,1.80
2017-11-19T04:53:38.331Z,1.90
2017-11-19T04:56:06.674Z,1.90
2017-11-19T04:58:35.000Z,1.90
2017-11-19T05:01:03.328Z,1.90
2017-11-19T05:03:31.674Z,2.00
2017-11-19T05:05:59.990Z,1.90
2017-11-19T05:08:29.072Z,1.90
2017-11-19T05:10:57.421Z,1.90
2017-11-19T05:13:25.758Z,1.90
2017-11-19T05:15:54.103Z,1.80
2017-11-19T05:18:22.457Z,1.90
2017-11-19T05:20:50.779Z,1.90
2017-11-19T05:23:19.873Z,1.90
2017-11-19T05:25:49.619Z,1.80
2017-11-19T05:28:18.478Z,1.80
2017-11-19T05:30:46.826Z,1.90
2017-11-19T05:33:14.861Z,1.90
2017-11-19T05:35:43.068Z,1.90
2017-11-19T05:38:11.392Z,1.90
2017-11-19T05:40:39.767Z,1.90
2017-11-19T05:43:08.087Z,1.90
2017-11-19T05:45:36.406Z,2.00
2017-11-19T05:48:04.754Z,2.00
2017-11-19T05:50:33.272Z,2.00
2017-11-19T05:53:01.591Z,1.90
2017-11-19T05:55:29.267Z,1.90
2017-11-19T05:57:57.592Z,1.90
2017-11-19T06:00:25.915Z,1.90
2017-11-19T06:02:54.270Z,1.90
2017-11-19T06:05:22.588Z,1.90
2017-11-19T06:07:51.674Z,1.90
2017-11-19T06:10:20.801Z,1.90
2017-11-19T06:12:49.124Z,1.90
2017-11-19T06:15:17.821Z,1.90
2017-11-19T06:17:46.162Z,1.90
2017-11-19T06:20:14.678Z,1.90
2017-11-19T06:22:43.012Z,1.90
2017-11-19T06:25:11.379Z,2.00
2017-11-19T06:27:39.912Z,1.90
2017-11-19T06:30:08.268Z,1.90
2017-11-19T06:32:36.579Z,1.90
2017-11-19T06:35:05.669Z,1.90
2017-11-19T06:37:34.807Z,1.90
2017-11-19T06:40:03.134Z,1.90
2017-11-19T06:42:31.456Z,1.90
2017-11-19T06:44:59.798Z,1.90
2017-11-19T06:47:28.890Z,1.90
2017-11-19T06:49:58.030Z,1.90
2017-11-19T06:52:26.352Z,1.90
2017-11-19T06:54:54.419Z,1.90
2017-11-19T06:57:22.995Z,2.00
2017-11-19T06:59:51.326Z,2.00
2017-11-19T07:02:20.907Z,2.00
2017-11-19T07:04:50.559Z,2.00
2017-11-19T07:07:19.425Z,2.00
2017-11-19T07:09:47.813Z,2.00
2017-11-19T07:12:16.184Z,2.00
2017-11-19T07:14:44.712Z,2.10
2017-11-19T07:17:13.040Z,2.00
2017-11-19T07:19:41.415Z,1.90
2017-11-19T07:22:09.743Z,2.00
2017-11-19T07:24:38.299Z,1.90
2017-11-19T07:27:06.871Z,1.90
2017-11-19T07:29:35.013Z,1.90
2017-11-19T07:32:03.159Z,2.00
2017-11-19T07:34:31.640Z,2.00
2017-11-19T07:37:00.733Z,1.90
2017-11-19T07:39:29.599Z,1.90
2017-11-19T07:41:57.860Z,1.90
2017-11-19T07:44:26.382Z,2.00
2017-11-19T07:46:55.475Z,1.90
2017-11-19T07:49:24.583Z,1.90
2017-11-19T07:51:52.248Z,1.90
2017-11-19T07:54:20.564Z,2.00
2017-11-19T07:56:49.897Z,1.90
2017-11-19T07:59:19.499Z,2.00
2017-11-19T08:01:49.116Z,2.00
2017-11-19T08:04:19.001Z,2.00
2017-11-19T08:06:46.991Z,1.90
2017-11-19T08:09:16.077Z,2.00
2017-11-19T08:11:44.473Z,1.90
2017-11-19T08:14:12.958Z,2.00
2017-11-19T08:16:40.947Z,2.00
2017-11-19T08:19:09.383Z,2.00
2017-11-19T08:21:38.480Z,2.10
2017-11-19T08:24:07.562Z,2.00
2017-11-19T08:26:35.915Z,2.00
2017-11-19T08:29:03.573Z,2.10
2017-11-19T08:31:31.890Z,2.10
2017-11-19T08:34:01.012Z,2.10
2017-11-19T08:36:29.331Z,2.10
2017-11-19T08:38:57.651Z,2.10
2017-11-19T08:41:26.042Z,2.10
2017-11-19T08:43:54.363Z,2.20
2017-11-19T08:46:22.689Z,2.10
2017-11-19T08:48:51.032Z,2.10
2017-11-19T08:51:20.372Z,2.10
2017-11-19T08:53:48.726Z,2.20
2017-11-19T08:56:17.048Z,2.20
2017-11-19T08:58:45.372Z,2.20
2017-11-19T09:01:14.480Z,2.30
2017-11-19T09:03:42.999Z,2.20
2017-11-19T09:06:11.328Z,2.20
2017-11-19T09:08:40.651Z,2.20
2017-11-19T09:11:08.975Z,2.20
2017-11-19T09:13:37.497Z,2.20
2017-11-19T09:16:05.931Z,2.20
2017-11-19T09:18:34.264Z,2.20
2017-11-19T09:21:02.840Z,2.30
2017-11-19T09:23:31.251Z,2.30
2017-11-19T09:25:59.576Z,2.20
2017-11-19T09:28:27.894Z,2.20
2017-11-19T09:30:56.256Z,2.20
2017-11-19T09:33:24.775Z,2.30
2017-11-19T09:35:53.140Z,2.30
2017-11-19T09:38:21.463Z,2.30
2017-11-19T09:40:50.328Z,2.20
2017-11-19T09:43:20.091Z,2.20
2017-11-19T09:45:48.465Z,2.20
2017-11-19T09:48:16.818Z,2.30
2017-11-19T09:50:45.168Z,2.30
2017-11-19T09:53:14.280Z,2.30
2017-11-19T09:55:42.610Z,2.20
2017-11-19T09:58:11.149Z,2.30
2017-11-19T10:00:39.522Z,2.30
2017-11-19T10:03:07.851Z,2.30
2017-11-19T10:05:36.181Z,2.40
2017-11-19T10:08:04.525Z,2.40
2017-11-19T10:10:33.286Z,2.50
2017-11-19T10:13:01.743Z,2.50
2017-11-19T10:15:30.073Z,2.50
2017-11-19T10:17:59.154Z,2.60
2017-11-19T10:20:28.275Z,2.50
2017-11-19T10:22:56.595Z,2.50
2017-11-19T10:25:24.915Z,2.50
2017-11-19T10:27:54.038Z,2.50
2017-11-19T10:30:22.137Z,2.50
2017-11-19T10:32:50.969Z,2.50
2017-11-19T10:35:20.087Z,2.50
2017-11-19T10:37:48.903Z,2.40
2017-11-19T10:40:17.423Z,2.60
2017-11-19T10:42:46.560Z,2.60
2017-11-19T10:45:14.874Z,2.60
2017-11-19T10:47:43.201Z,2.60
2017-11-19T10:50:11.538Z,2.60
2017-11-19T10:52:40.634Z,2.60
2017-11-19T10:55:09.775Z,2.60
2017-11-19T10:57:38.297Z,2.60
2017-11-19T11:00:06.633Z,2.70
2017-11-19T11:02:35.204Z,2.70
2017-11-19T11:05:03.535Z,2.70
2017-11-19T11:07:31.858Z,2.60
2017-11-19T11:10:00.204Z,2.60
2017-11-19T11:12:29.490Z,2.50
2017-11-19T11:14:57.824Z,2.50
2017-11-19T11:17:26.164Z,2.70
2017-11-19T11:19:54.541Z,2.80
2017-11-19T11:22:22.868Z,2.90
2017-11-19T11:24:51.317Z,2.80
2017-11-19T11:27:20.461Z,2.90
2017-11-19T11:29:49.279Z,2.90
2017-11-19T11:32:18.067Z,2.80
2017-11-19T11:34:47.149Z,2.80
2017-11-19T11:37:16.235Z,2.90
2017-11-19T11:39:45.360Z,2.90
2017-11-19T11:42:13.349Z,2.80
2017-11-19T11:44:41.675Z,2.80
2017-11-19T11:47:10.780Z,2.80
2017-11-19T11:49:39.867Z,2.80
2017-11-19T11:52:08.996Z,2.80
2017-11-19T11:54:37.318Z,2.80
2017-11-19T11:57:05.636Z,2.80
2017-11-19T11:59:33.991Z,2.80
2017-11-19T12:02:03.086Z,3.00
2017-11-19T12:04:32.177Z,3.00
2017-11-19T12:07:01.320Z,3.10
2017-11-19T12:09:29.639Z,3.00
2017-11-19T12:11:58.731Z,3.10
2017-11-19T12:14:27.844Z,3.00
2017-11-19T12:16:56.197Z,3.00
2017-11-19T12:19:24.512Z,3.10
2017-11-19T12:21:52.838Z,3.10
2017-11-19T12:24:21.211Z,3.10
2017-11-19T12:26:48.864Z,3.10
2017-11-19T12:29:17.452Z,3.10
2017-11-19T12:31:45.111Z,3.10
2017-11-19T12:34:13.436Z,3.10
2017-11-19T12:36:41.800Z,3.10
2017-11-19T12:39:10.883Z,3.10
2017-11-19T12:41:40.006Z,3.00
2017-11-19T12:44:08.545Z,3.00
2017-11-19T12:46:36.873Z,3.00
2017-11-19T12:49:05.186Z,3.10
2017-11-19T12:51:33.537Z,3.00
2017-11-19T12:54:01.855Z,3.10
2017-11-19T12:56:30.969Z,3.20
2017-11-19T12:59:00.302Z,3.20
2017-11-19T13:01:28.615Z,3.20
2017-11-19T13:03:56.961Z,3.20
2017-11-19T13:06:25.319Z,3.20
2017-11-19T13:08:53.726Z,3.20
2017-11-19T13:11:22.806Z,5.30
2017-11-19T13:13:51.149Z,3.20
2017-11-19T13:16:19.473Z,3.10
2017-11-19T13:18:48.023Z,3.10
2017-11-19T13:21:16.338Z,3.10
2017-11-19T13:23:44.664Z,3.00
2017-11-19T13:26:13.021Z,3.00
2017-11-19T13:28:42.114Z,3.00
2017-11-19T13:31:11.200Z,3.10
2017-11-19T13:33:40.329Z,3.20
2017-11-19T13:36:08.646Z,3.10
2017-11-19T13:38:36.968Z,3.10
2017-11-19T13:41:05.328Z,3.10
2017-11-19T13:43:34.436Z,3.10
2017-11-19T13:46:02.766Z,3.10
2017-11-19T13:48:31.133Z,3.00
2017-11-19T13:51:00.036Z,3.10
2017-11-19T13:53:28.405Z,3.10
2017-11-19T13:55:56.820Z,3.20
2017-11-19T13:58:25.144Z,3.10
2017-11-19T14:00:54.252Z,3.10
2017-11-19T14:03:23.388Z,3.20
2017-11-19T14:05:51.891Z,3.10
2017-11-19T14:08:20.224Z,3.10
2017-11-19T14:10:49.223Z,3.10
2017-11-19T14:13:17.544Z,3.10
2017-11-19T14:15:46.029Z,3.20
2017-11-19T14:18:14.365Z,3.10
2017-11-19T14:20:42.696Z,3.20
2017-11-19T14:23:11.820Z,3.10
2017-11-19T14:25:40.344Z,3.10
2017-11-19T14:28:08.668Z,3.10
2017-11-19T14:30:36.556Z,3.10
2017-11-19T14:33:04.870Z,3.10
2017-11-19T14:35:33.278Z,3.10
2017-11-19T14:38:02.565Z,3.10
2017-11-19T14:40:31.834Z,3.10
2017-11-19T14:43:00.203Z,3.10
2017-11-19T14:45:28.519Z,3.20
2017-11-19T14:47:57.637Z,3.10
2017-11-19T14:50:25.993Z,3.10
2017-11-19T14:52:54.431Z,3.10
2017-11-19T14:55:22.766Z,3.10
2017-11-19T14:57:51.291Z,3.10
2017-11-19T15:00:20.432Z,3.10
2017-11-19T15:02:48.960Z,3.20
2017-11-19T15:05:17.316Z,3.20
2017-11-19T15:07:45.854Z,3.10
2017-11-19T15:10:14.950Z,3.10
2017-11-19T15:12:44.027Z,3.10
2017-11-19T15:15:12.466Z,3.10
2017-11-19T15:17:40.784Z,3.10
2017-11-19T15:20:09.867Z,3.10
2017-11-19T15:22:38.214Z,3.10
2017-11-19T15:25:06.561Z,3.10
2017-11-19T15:27:35.079Z,3.10
2017-11-19T15:30:03.395Z,3.10
2017-11-19T15:32:32.724Z,3.10
2017-11-19T15:35:01.053Z,3.10
2017-11-19T15:37:29.366Z,3.10
2017-11-19T15:39:57.759Z,3.10
2017-11-19T15:42:26.279Z,3.10
2017-11-19T15:44:54.607Z,3.10
2017-11-19T15:47:22.971Z,3.10
2017-11-19T15:49:51.413Z,3.00
2017-11-19T15:52:21.169Z,3.00
2017-11-19T15:54:50.571Z,3.00
2017-11-19T15:57:21.280Z,3.10
2017-11-19T15:59:51.320Z,3.10
2017-11-19T16:02:20.141Z,3.10
2017-11-19T16:04:49.583Z,3.10
2017-11-19T16:07:18.757Z,3.10
2017-11-19T16:09:47.115Z,3.10
2017-11-19T16:12:15.439Z,3.10
2017-11-19T16:14:44.525Z,3.00
2017-11-19T16:17:13.831Z,3.10
2017-11-19T16:19:42.919Z,3.00
2017-11-19T16:22:12.065Z,3.00
2017-11-19T16:24:40.398Z,3.00
2017-11-19T16:27:09.671Z,3.00
2017-11-19T16:29:38.190Z,3.00
2017-11-19T16:32:06.683Z,3.00
2017-11-19T16:34:35.006Z,3.10
2017-11-19T16:37:03.376Z,3.10
2017-11-19T16:39:31.723Z,3.10
2017-11-19T16:42:00.049Z,3.00
2017-11-19T16:44:29.180Z,3.10
2017-11-19T16:46:57.498Z,3.10
2017-11-19T16:49:25.844Z,3.00
2017-11-19T16:51:54.415Z,3.10
2017-11-19T16:54:22.739Z,3.10
2017-11-19T16:56:51.092Z,3.10
2017-11-19T16:59:19.672Z,3.10
2017-11-19T17:01:48.096Z,3.00
2017-11-19T17:04:17.227Z,3.10
2017-11-19T17:06:45.743Z,3.00
2017-11-19T17:09:14.080Z,3.10
2017-11-19T17:11:42.428Z,3.00
2017-11-19T17:14:11.502Z,3.00
2017-11-19T17:16:40.634Z,3.00
2017-11-19T17:19:08.951Z,3.00
2017-11-19T17:21:38.233Z,3.00
2017-11-19T17:24:06.585Z,3.00
2017-11-19T17:26:34.938Z,3.00
2017-11-19T17:29:04.030Z,3.00
2017-11-19T17:31:33.228Z,2.90
2017-11-19T17:34:01.759Z,2.90
2017-11-19T17:36:33.714Z,3.00
2017-11-19T17:39:02.062Z,3.00
2017-11-19T17:41:30.380Z,2.90
2017-11-19T17:43:59.874Z,3.00
2017-11-19T17:46:28.270Z,3.00
2017-11-19T17:48:56.598Z,2.90
2017-11-19T17:51:24.973Z,3.00
2017-11-19T17:53:53.300Z,3.00
2017-11-19T17:56:21.892Z,3.00
2017-11-19T17:58:50.254Z,3.00
2017-11-19T18:01:18.959Z,3.00
2017-11-19T18:03:48.849Z,3.00
2017-11-19T18:06:17.208Z,3.00
2017-11-19T18:08:45.566Z,3.00
2017-11-19T18:11:13.946Z,3.00
2017-11-19T18:13:42.268Z,3.00
2017-11-19T18:16:10.599Z,3.00
2017-11-19T18:18:38.941Z,3.00
2017-11-19T18:21:07.373Z,2.90
2017-11-19T18:23:36.508Z,2.90
2017-11-19T18:26:05.032Z,2.90
2017-11-19T18:28:33.479Z,2.80
2017-11-19T18:31:02.672Z,3.00
2017-11-19T18:33:31.907Z,2.90
2017-11-19T18:36:00.431Z,2.90
2017-11-19T18:38:28.825Z,2.90
2017-11-19T18:40:57.949Z,2.90
2017-11-19T18:43:26.275Z,2.80
2017-11-19T18:45:54.615Z,2.90
2017-11-19T18:48:23.072Z,2.80
2017-11-19T18:50:52.737Z,2.90
2017-11-19T18:53:21.148Z,2.90
2017-11-19T18:55:50.326Z,2.90
2017-11-19T18:58:19.451Z,2.80
2017-11-19T19:00:48.255Z,2.90
2017-11-19T19:03:16.585Z,2.90
2017-11-19T19:05:45.802Z,2.80
2017-11-19T19:08:14.889Z,2.80
2017-11-19T19:10:43.972Z,2.80
2017-11-19T19:13:12.324Z,2.80
2017-11-19T19:15:40.324Z,2.90
2017-11-19T19:18:08.656Z,2.80
2017-11-19T19:20:36.997Z,2.80
2017-11-19T19:23:05.322Z,2.90
2017-11-19T19:25:33.666Z,2.90
2017-11-19T19:28:02.037Z,2.90
2017-11-19T19:30:30.660Z,2.90
2017-11-19T19:32:59.171Z,2.80
2017-11-19T19:35:28.422Z,2.80
2017-11-19T19:37:56.793Z,2.80
2017-11-19T19:40:25.130Z,2.80
2017-11-19T19:42:54.436Z,2.80
2017-11-19T19:45:22.803Z,2.80
2017-11-19T19:47:51.886Z,0.50
2017-11-19T19:50:20.479Z,2.80
2017-11-19T19:52:48.849Z,2.80
2017-11-19T19:55:18.328Z,2.80
2017-11-19T19:57:46.740Z,2.80
2017-11-19T20:00:15.911Z,2.80
2017-11-19T20:02:45.045Z,2.80
2017-11-19T20:05:14.417Z,2.80
2017-11-19T20:07:43.650Z,2.80
2017-11-19T20:10:12.058Z,2.80
2017-11-19T20:12:41.028Z,2.80
2017-11-19T20:15:09.381Z,2.70
2017-11-19T20:17:37.715Z,2.80
2017-11-19T20:20:06.260Z,2.70
2017-11-19T20:22:34.653Z,2.80
2017-11-19T20:25:02.979Z,2.70
2017-11-19T20:27:33.067Z,2.80
2017-11-19T20:30:02.196Z,2.80
2017-11-19T20:32:31.289Z,2.70
2017-11-19T20:35:00.850Z,2.80
2017-11-19T20:37:29.227Z,2.70
2017-11-19T20:39:57.580Z,2.80
2017-11-19T20:42:25.927Z,2.80
2017-11-19T20:44:56.722Z,2.70
2017-11-19T20:47:25.360Z,2.70
2017-11-19T20:49:53.732Z,2.70
2017-11-19T20:52:22.085Z,2.70
2017-11-19T20:54:50.444Z,2.80
2017-11-19T20:57:19.325Z,2.70
2017-11-19T20:59:47.700Z,2.80
2017-11-19T21:02:16.089Z,2.80
2017-11-19T21:04:44.418Z,2.70
2017-11-19T21:07:13.036Z,2.80
2017-11-19T21:09:41.568Z,2.70
2017-11-19T21:12:10.313Z,2.80
2017-11-19T21:14:39.100Z,2.80
2017-11-19T21:17:08.569Z,2.80
2017-11-19T21:19:37.177Z,2.70
2017-11-19T21:22:06.351Z,2.80
2017-11-19T21:24:34.691Z,2.70
2017-11-19T21:27:03.783Z,2.80
2017-11-19T21:29:32.915Z,2.80
2017-11-19T21:32:01.242Z,2.80
2017-11-19T21:34:29.559Z,2.80
2017-11-19T21:36:57.955Z,2.70
2017-11-19T21:39:26.302Z,2.80
2017-11-19T21:41:55.577Z,2.70
2017-11-19T21:44:24.681Z,2.70
2017-11-19T21:46:53.767Z,2.70
2017-11-19T21:49:22.855Z,2.70
2017-11-19T21:51:51.963Z,2.70
2017-11-19T21:54:21.049Z,2.70
2017-11-19T21:56:50.424Z,2.70
2017-11-19T21:59:19.807Z,2.80
2017-11-19T22:01:48.365Z,2.70
2017-11-19T22:04:16.690Z,2.70
2017-11-19T22:06:46.152Z,2.70
2017-11-19T22:09:14.683Z,2.70
2017-11-19T22:11:43.791Z,2.70
2017-11-19T22:14:12.550Z,2.70
2017-11-19T22:16:40.871Z,2.60
2017-11-19T22:19:09.216Z,2.70
2017-11-19T22:21:38.172Z,2.70
2017-11-19T22:24:06.507Z,2.70
2017-11-19T22:26:35.629Z,2.60
2017-11-19T22:29:03.951Z,2.50
2017-11-19T22:31:32.279Z,2.60
2017-11-19T22:34:00.649Z,2.70
2017-11-19T22:36:28.971Z,2.70
2017-11-19T22:38:57.297Z,2.70
2017-11-19T22:41:25.720Z,2.70
2017-11-19T22:43:54.038Z,2.70
2017-11-19T22:46:22.364Z,2.70
2017-11-19T22:48:51.609Z,2.60
2017-11-19T22:51:21.453Z,2.60
2017-11-19T22:53:49.781Z,2.60
2017-11-19T22:56:19.238Z,2.70
2017-11-19T22:58:47.571Z,2.70
2017-11-19T23:01:16.676Z,2.70
2017-11-19T23:03:45.765Z,2.70
2017-11-19T23:06:14.853Z,2.60
2017-11-19T23:08:43.955Z,2.60
2017-11-19T23:11:13.045Z,2.70
2017-11-19T23:13:42.135Z,2.60
2017-11-19T23:16:11.237Z,2.60
2017-11-19T23:18:40.539Z,2.60
2017-11-19T23:21:09.815Z,2.60
2017-11-19T23:23:38.177Z,2.60
2017-11-19T23:26:06.704Z,2.60
2017-11-19T23:28:35.026Z,2.70
2017-11-19T23:31:03.372Z,2.70
2017-11-19T23:33:31.698Z,2.70
2017-11-19T23:36:00.048Z,2.60
2017-11-19T23:38:28.374Z,2.60
2017-11-19T23:40:57.457Z,2.70
2017-11-19T23:43:27.325Z,2.70
2017-11-19T23:45:55.650Z,2.70
2017-11-19T23:48:24.944Z,2.70
2017-11-19T23:50:54.057Z,2.60
2017-11-19T23:53:23.342Z,2.60
2017-11-19T23:55:52.428Z,2.60
2017-11-19T23:58:21.819Z,2.60
